createdAt,value
2018-11-11T00:00:19.663Z,7.70
2018-11-11T00:02:49.861Z,7.70
2018-11-11T00:05:19.224Z,7.60
2018-11-11T00:07:48.547Z,7.70
2018-11-11T00:10:18.027Z,7.50
2018-11-11T00:12:47.380Z,7.50
2018-11-11T00:15:17.727Z,7.60
2018-11-11T00:17:47.926Z,7.60
2018-11-11T00:20:17.512Z,7.70
2018-11-11T00:22:46.892Z,7.70
2018-11-11T00:25:16.263Z,7.60
2018-11-11T00:27:45.728Z,7.60
2018-11-11T00:30:16.352Z,7.70
2018-11-11T00:32:45.770Z,7.70
2018-11-11T00:35:15.184Z,7.70
2018-11-11T00:37:44.572Z,7.70
2018-11-11T00:40:17.504Z,7.70
2018-11-11T00:42:49.148Z,7.60
2018-11-11T00:45:20.332Z,7.60
2018-11-11T00:47:51.977Z,7.80
2018-11-11T00:50:22.817Z,7.70
2018-11-11T00:52:54.206Z,7.70
2018-11-11T00:55:23.747Z,7.70
2018-11-11T00:57:53.128Z,7.70
2018-11-11T01:00:22.447Z,7.70
2018-11-11T01:02:51.828Z,7.70
2018-11-11T01:05:21.163Z,7.60
2018-11-11T01:07:50.589Z,7.70
2018-11-11T01:10:19.978Z,7.80
2018-11-11T01:12:49.364Z,7.80
2018-11-11T01:15:18.828Z,7.80
2018-11-11T01:17:48.421Z,7.70
2018-11-11T01:20:18.284Z,7.80
2018-11-11T01:22:47.718Z,7.80
2018-11-11T01:25:17.928Z,7.80
2018-11-11T01:27:47.368Z,7.90
2018-11-11T01:30:16.689Z,7.90
2018-11-11T01:32:46.080Z,7.90
2018-11-11T01:35:16.375Z,7.80
2018-11-11T01:37:45.965Z,7.90
2018-11-11T01:40:15.436Z,7.70
2018-11-11T01:42:44.896Z,7.80
2018-11-11T01:45:19.367Z,7.80
2018-11-11T01:47:49.317Z,7.90
2018-11-11T01:50:18.657Z,7.80
2018-11-11T01:52:48.041Z,7.80
2018-11-11T01:55:17.351Z,7.80
2018-11-11T01:57:46.750Z,7.80
2018-11-11T02:00:17.414Z,7.80
2018-11-11T02:02:47.693Z,7.70
2018-11-11T02:05:17.082Z,7.70
2018-11-11T02:07:47.228Z,7.70
2018-11-11T02:10:16.606Z,7.80
2018-11-11T02:12:46.675Z,7.90
2018-11-11T02:15:17.124Z,7.90
2018-11-11T02:17:46.517Z,7.80
2018-11-11T02:20:19.830Z,7.90
2018-11-11T02:22:50.327Z,7.90
2018-11-11T02:25:19.698Z,8.00
2018-11-11T02:27:49.047Z,7.90
2018-11-11T02:30:19.579Z,7.90
2018-11-11T02:32:48.912Z,7.80
2018-11-11T02:35:18.303Z,7.70
2018-11-11T02:37:47.642Z,7.80
2018-11-11T02:40:18.310Z,7.90
2018-11-11T02:42:48.103Z,7.90
2018-11-11T02:45:18.541Z,7.90
2018-11-11T02:47:47.905Z,7.90
2018-11-11T02:50:18.363Z,7.90
2018-11-11T02:52:47.935Z,8.00
2018-11-11T02:55:17.691Z,7.90
2018-11-11T02:57:47.455Z,7.90
2018-11-11T03:00:18.025Z,7.90
2018-11-11T03:02:47.713Z,7.90
2018-11-11T03:05:17.849Z,7.90
2018-11-11T03:07:47.178Z,7.90
2018-11-11T03:10:17.172Z,7.80
2018-11-11T03:12:47.543Z,7.80
2018-11-11T03:15:17.200Z,7.90
2018-11-11T03:17:46.564Z,7.90
2018-11-11T03:20:16.433Z,7.90
2018-11-11T03:22:45.791Z,7.80
2018-11-11T03:25:16.116Z,7.70
2018-11-11T03:27:45.526Z,7.70
2018-11-11T03:30:16.148Z,7.60
2018-11-11T03:32:45.630Z,7.50
2018-11-11T03:35:15.361Z,7.60
2018-11-11T03:37:45.480Z,7.70
2018-11-11T03:40:16.423Z,7.60
2018-11-11T03:42:46.002Z,7.70
2018-11-11T03:45:16.576Z,7.70
2018-11-11T03:47:46.962Z,7.70
2018-11-11T03:50:16.388Z,7.70
2018-11-11T03:52:45.972Z,7.80
2018-11-11T03:55:20.622Z,7.80
2018-11-11T03:57:50.007Z,7.80
2018-11-11T04:00:19.419Z,7.80
2018-11-11T04:02:48.774Z,7.80
2018-11-11T04:05:18.529Z,7.80
2018-11-11T04:07:47.891Z,7.80
2018-11-11T04:10:18.510Z,7.80
2018-11-11T04:12:48.421Z,7.80
2018-11-11T04:15:18.951Z,7.80
2018-11-11T04:17:48.792Z,7.80
2018-11-11T04:20:19.438Z,7.90
2018-11-11T04:22:48.839Z,7.90
2018-11-11T04:25:18.804Z,7.90
2018-11-11T04:27:48.216Z,7.80
2018-11-11T04:30:17.564Z,7.70
2018-11-11T04:32:46.956Z,7.80
2018-11-11T04:35:16.300Z,7.80
2018-11-11T04:37:45.736Z,7.80
2018-11-11T04:40:15.108Z,7.80
2018-11-11T04:42:44.499Z,7.80
2018-11-11T04:45:15.873Z,7.80
2018-11-11T04:47:46.119Z,7.80
2018-11-11T04:50:16.731Z,7.90
2018-11-11T04:52:46.783Z,7.90
2018-11-11T04:55:16.161Z,7.90
2018-11-11T04:57:45.580Z,7.80
2018-11-11T05:00:15.452Z,7.70
2018-11-11T05:02:44.844Z,7.70
2018-11-11T05:05:14.768Z,7.70
2018-11-11T05:07:44.195Z,7.70
2018-11-11T05:10:13.967Z,7.80
2018-11-11T05:12:43.385Z,7.80
2018-11-11T05:15:13.535Z,7.70
2018-11-11T05:17:43.332Z,7.80
2018-11-11T05:20:13.431Z,7.80
2018-11-11T05:22:43.467Z,7.80
2018-11-11T05:25:14.070Z,7.80
2018-11-11T05:27:44.269Z,7.70
2018-11-11T05:30:14.259Z,7.70
2018-11-11T05:32:43.671Z,7.70
2018-11-11T05:35:13.342Z,7.70
2018-11-11T05:37:43.352Z,7.70
2018-11-11T05:40:13.388Z,7.70
2018-11-11T05:42:43.482Z,7.60
2018-11-11T05:45:14.006Z,7.60
2018-11-11T05:47:43.717Z,7.60
2018-11-11T05:50:14.403Z,7.60
2018-11-11T05:52:44.921Z,7.60
2018-11-11T05:55:14.391Z,7.60
2018-11-11T05:57:43.787Z,7.60
2018-11-11T06:00:14.440Z,7.60
2018-11-11T06:02:44.203Z,7.60
2018-11-11T06:05:14.557Z,7.60
2018-11-11T06:07:43.919Z,7.50
2018-11-11T06:10:14.314Z,7.50
2018-11-11T06:12:43.674Z,7.50
2018-11-11T06:15:13.750Z,7.50
2018-11-11T06:17:43.201Z,7.50
2018-11-11T06:20:14.176Z,7.50
2018-11-11T06:22:43.558Z,7.40
2018-11-11T06:25:13.124Z,7.40
2018-11-11T06:27:42.573Z,7.40
2018-11-11T06:30:12.488Z,7.40
2018-11-11T06:32:41.964Z,7.30
2018-11-11T06:35:11.416Z,7.30
2018-11-11T06:37:41.062Z,7.30
2018-11-11T06:40:11.805Z,7.30
2018-11-11T06:42:41.305Z,7.20
2018-11-11T06:45:13.019Z,7.20
2018-11-11T06:47:43.179Z,7.20
2018-11-11T06:50:13.441Z,7.20
2018-11-11T06:52:43.378Z,7.30
2018-11-11T06:55:13.118Z,7.30
2018-11-11T06:57:42.630Z,7.40
2018-11-11T07:00:13.871Z,7.50
2018-11-11T07:02:54.407Z,7.70
2018-11-11T07:05:23.863Z,7.70
2018-11-11T07:07:53.221Z,7.80
2018-11-11T07:10:22.666Z,7.90
2018-11-11T07:12:52.035Z,7.90
2018-11-11T07:15:21.491Z,7.90
2018-11-11T07:17:50.906Z,8.00
2018-11-11T07:20:20.307Z,8.10
2018-11-11T07:22:49.729Z,8.00
2018-11-11T07:25:19.107Z,8.00
2018-11-11T07:27:48.552Z,8.00
2018-11-11T07:30:17.942Z,8.00
2018-11-11T07:32:47.398Z,8.00
2018-11-11T07:35:16.754Z,8.00
2018-11-11T07:37:46.184Z,8.10
2018-11-11T07:40:16.271Z,8.00
2018-11-11T07:42:45.677Z,8.00
2018-11-11T07:45:15.061Z,8.00
2018-11-11T07:47:44.485Z,8.10
2018-11-11T07:50:13.817Z,8.10
2018-11-11T07:52:43.199Z,8.20
2018-11-11T07:55:13.102Z,8.20
2018-11-11T07:57:42.804Z,8.30
2018-11-11T08:00:13.413Z,8.30
2018-11-11T08:02:43.134Z,8.30
2018-11-11T08:05:12.528Z,8.30
2018-11-11T08:07:41.931Z,8.30
2018-11-11T08:10:22.296Z,8.20
2018-11-11T08:12:51.826Z,8.30
2018-11-11T08:15:21.502Z,8.30
2018-11-11T08:17:50.913Z,8.40
2018-11-11T08:20:20.277Z,8.40
2018-11-11T08:22:49.676Z,8.40
2018-11-11T08:25:19.029Z,8.40
2018-11-11T08:27:48.500Z,8.40
2018-11-11T08:30:17.850Z,8.40
2018-11-11T08:32:47.237Z,8.50
2018-11-11T08:35:16.613Z,8.50
2018-11-11T08:37:46.033Z,8.70
2018-11-11T08:40:15.426Z,8.80
2018-11-11T08:42:44.818Z,8.80
2018-11-11T08:45:15.018Z,8.80
2018-11-11T08:47:45.290Z,8.90
2018-11-11T08:50:14.947Z,8.80
2018-11-11T08:52:44.531Z,8.90
2018-11-11T08:55:13.869Z,9.00
2018-11-11T08:57:43.273Z,9.30
2018-11-11T09:00:14.027Z,11.40
2018-11-11T09:02:43.455Z,13.00
2018-11-11T09:05:12.876Z,15.30
2018-11-11T09:07:42.251Z,16.50
2018-11-11T09:10:12.445Z,17.60
2018-11-11T09:12:41.883Z,16.80
2018-11-11T09:15:13.491Z,17.40
2018-11-11T09:17:43.182Z,17.80
2018-11-11T09:20:13.823Z,16.20
2018-11-11T09:22:43.196Z,14.40
2018-11-11T09:25:12.688Z,13.00
2018-11-11T09:27:42.512Z,13.30
2018-11-11T09:30:13.507Z,14.30
2018-11-11T09:32:43.051Z,14.80
2018-11-11T09:35:12.479Z,15.40
2018-11-11T09:37:42.073Z,16.80
2018-11-11T09:40:12.527Z,18.40
2018-11-11T09:42:42.204Z,19.20
2018-11-11T09:45:13.483Z,19.00
2018-11-11T09:47:43.091Z,18.30
2018-11-11T09:50:13.911Z,17.00
2018-11-11T09:52:43.339Z,16.30
2018-11-11T09:55:13.531Z,16.80
2018-11-11T09:57:42.931Z,17.00
2018-11-11T10:00:15.645Z,18.30
2018-11-11T10:02:49.584Z,19.30
2018-11-11T10:05:25.355Z,19.70
2018-11-11T10:08:05.259Z,20.10
2018-11-11T10:11:42.020Z,18.40
2018-11-11T10:14:32.848Z,18.40
2018-11-11T10:17:07.515Z,17.60
2018-11-11T10:21:46.820Z,17.30
2018-11-11T10:24:26.927Z,17.20
2018-11-11T10:27:06.565Z,17.90
2018-11-11T10:29:40.373Z,17.30
2018-11-11T10:32:25.919Z,17.40
2018-11-11T10:35:00.325Z,18.20
2018-11-11T10:37:34.914Z,18.30
2018-11-11T10:40:10.171Z,18.90
2018-11-11T10:44:48.159Z,20.60
2018-11-11T10:47:23.647Z,19.10
2018-11-11T10:49:56.194Z,18.60
2018-11-11T10:52:25.594Z,17.40
2018-11-11T10:54:55.334Z,17.60
2018-11-11T10:57:25.184Z,17.50
2018-11-11T10:59:54.532Z,17.50
2018-11-11T11:02:28.432Z,16.10
2018-11-11T11:05:02.947Z,15.80
2018-11-11T11:07:32.383Z,16.00
2018-11-11T11:10:01.801Z,15.50
2018-11-11T11:12:31.173Z,15.80
2018-11-11T11:15:00.590Z,16.40
2018-11-11T11:17:29.991Z,16.30
2018-11-11T11:19:59.335Z,15.60
2018-11-11T11:22:28.716Z,15.70
2018-11-11T11:24:58.111Z,15.20
2018-11-11T11:27:27.634Z,15.30
2018-11-11T11:29:56.919Z,15.30
2018-11-11T11:32:26.397Z,15.60
2018-11-11T11:34:55.771Z,15.30
2018-11-11T11:37:25.187Z,14.80
2018-11-11T11:39:54.547Z,14.50
2018-11-11T11:42:23.945Z,14.50
2018-11-11T11:44:53.315Z,15.20
2018-11-11T11:47:22.698Z,16.20
2018-11-11T11:49:52.149Z,15.70
2018-11-11T11:52:21.559Z,16.10
2018-11-11T11:54:50.919Z,16.90
2018-11-11T11:57:20.309Z,18.00
2018-11-11T11:59:49.698Z,17.00
2018-11-11T12:02:19.147Z,17.00
2018-11-11T12:04:48.572Z,17.60
2018-11-11T12:07:17.943Z,18.90
2018-11-11T12:09:47.332Z,21.20
2018-11-11T12:12:16.703Z,20.20
2018-11-11T12:14:46.071Z,20.30
2018-11-11T12:17:15.498Z,20.10
2018-11-11T12:19:44.860Z,19.80
2018-11-11T12:22:14.240Z,20.00
2018-11-11T12:24:43.611Z,20.20
2018-11-11T12:27:12.997Z,21.00
2018-11-11T12:29:42.379Z,19.80
2018-11-11T12:32:11.765Z,18.60
2018-11-11T12:34:41.157Z,17.70
2018-11-11T12:37:10.544Z,17.70
2018-11-11T12:39:39.974Z,18.90
2018-11-11T12:42:09.292Z,18.80
2018-11-11T12:44:38.750Z,17.80
2018-11-11T12:47:08.128Z,17.10
2018-11-11T12:49:37.531Z,16.70
2018-11-11T12:52:06.897Z,16.30
2018-11-11T12:54:36.284Z,15.80
2018-11-11T12:57:05.833Z,15.20
2018-11-11T12:59:35.224Z,14.90
2018-11-11T13:02:04.834Z,15.00
2018-11-11T13:04:34.293Z,15.20
2018-11-11T13:07:03.580Z,15.30
2018-11-11T13:09:32.950Z,15.20
2018-11-11T13:12:02.373Z,15.10
2018-11-11T13:14:31.727Z,14.60
2018-11-11T13:17:01.085Z,14.80
2018-11-11T13:19:30.515Z,14.60
2018-11-11T13:21:59.905Z,14.50
2018-11-11T13:24:29.252Z,14.40
2018-11-11T13:26:58.851Z,14.50
2018-11-11T13:29:28.253Z,14.30
2018-11-11T13:31:57.689Z,14.40
2018-11-11T13:34:27.017Z,14.40
2018-11-11T13:36:56.364Z,14.40
2018-11-11T13:39:32.354Z,14.20
2018-11-11T13:42:01.754Z,14.10
2018-11-11T13:44:31.164Z,14.10
2018-11-11T13:47:00.599Z,13.90
2018-11-11T13:49:29.969Z,13.90
2018-11-11T13:51:59.428Z,13.90
2018-11-11T13:54:28.932Z,14.00
2018-11-11T13:56:58.320Z,14.10
2018-11-11T13:59:27.738Z,14.00
2018-11-11T14:01:57.118Z,13.70
2018-11-11T14:04:26.536Z,13.70
2018-11-11T14:06:55.909Z,13.60
2018-11-11T14:09:25.244Z,13.50
2018-11-11T14:11:54.635Z,13.50
2018-11-11T14:14:23.983Z,13.40
2018-11-11T14:16:53.416Z,13.20
2018-11-11T14:19:22.934Z,13.20
2018-11-11T14:21:52.185Z,13.00
2018-11-11T14:24:21.596Z,12.90
2018-11-11T14:26:51.209Z,12.80
2018-11-11T14:29:20.596Z,12.90
2018-11-11T14:31:49.992Z,12.70
2018-11-11T14:34:19.368Z,12.70
2018-11-11T14:36:48.777Z,12.60
2018-11-11T14:39:18.148Z,12.50
2018-11-11T14:41:47.524Z,12.50
2018-11-11T14:44:16.879Z,12.40
2018-11-11T14:46:46.408Z,12.40
2018-11-11T14:49:15.822Z,12.40
2018-11-11T14:51:45.309Z,12.30
2018-11-11T14:54:14.658Z,12.30
2018-11-11T14:56:44.062Z,12.20
2018-11-11T14:59:13.431Z,12.20
2018-11-11T15:01:42.890Z,12.20
2018-11-11T15:04:12.226Z,12.10
2018-11-11T15:06:41.631Z,12.10
2018-11-11T15:09:12.391Z,12.20
2018-11-11T15:11:42.121Z,12.10
2018-11-11T15:14:11.953Z,11.90
2018-11-11T15:16:41.331Z,11.90
2018-11-11T15:19:10.807Z,11.80
2018-11-11T15:21:40.138Z,11.80
2018-11-11T15:24:09.523Z,11.90
2018-11-11T15:26:39.523Z,11.90
2018-11-11T15:29:08.936Z,11.80
2018-11-11T15:31:38.304Z,11.80
2018-11-11T15:34:07.711Z,11.90
2018-11-11T15:36:37.084Z,11.70
2018-11-11T15:39:09.254Z,11.70
2018-11-11T15:41:38.870Z,11.60
2018-11-11T15:44:08.258Z,11.60
2018-11-11T15:46:37.636Z,11.70
2018-11-11T15:49:07.037Z,11.70
2018-11-11T15:51:36.605Z,11.70
2018-11-11T15:54:06.448Z,11.70
2018-11-11T15:56:35.848Z,11.70
2018-11-11T15:59:05.337Z,11.60
2018-11-11T16:01:34.697Z,11.70
2018-11-11T16:04:04.113Z,11.70
2018-11-11T16:06:33.604Z,11.60
2018-11-11T16:09:02.941Z,11.60
2018-11-11T16:11:32.311Z,11.60
2018-11-11T16:14:01.839Z,11.60
2018-11-11T16:16:31.214Z,11.60
2018-11-11T16:19:00.593Z,11.60
2018-11-11T16:21:30.250Z,11.50
2018-11-11T16:23:59.623Z,11.50
2018-11-11T16:26:29.033Z,11.40
2018-11-11T16:28:58.416Z,11.40
2018-11-11T16:31:27.850Z,11.40
2018-11-11T16:33:57.191Z,11.30
2018-11-11T16:36:26.557Z,11.30
2018-11-11T16:38:55.975Z,11.40
2018-11-11T16:41:25.580Z,11.30
2018-11-11T16:43:54.786Z,11.30
2018-11-11T16:46:24.318Z,11.30
2018-11-11T16:48:53.728Z,11.30
2018-11-11T16:51:23.139Z,11.40
2018-11-11T16:53:52.601Z,11.20
2018-11-11T16:56:21.952Z,11.10
2018-11-11T16:58:51.346Z,11.20
2018-11-11T17:01:20.711Z,11.30
2018-11-11T17:03:50.084Z,11.20
2018-11-11T17:06:19.447Z,11.30
2018-11-11T17:08:49.040Z,11.30
2018-11-11T17:11:18.379Z,11.30
2018-11-11T17:13:47.887Z,11.20
2018-11-11T17:16:17.301Z,11.20
2018-11-11T17:18:46.719Z,11.10
2018-11-11T17:21:16.080Z,11.10
2018-11-11T17:23:45.467Z,11.00
2018-11-11T17:26:14.819Z,11.00
2018-11-11T17:28:44.218Z,11.00
2018-11-11T17:31:13.590Z,11.00
2018-11-11T17:33:42.939Z,11.00
2018-11-11T17:36:12.348Z,10.90
2018-11-11T17:38:41.897Z,10.90
2018-11-11T17:41:11.263Z,10.80
2018-11-11T17:43:40.627Z,10.90
2018-11-11T17:46:10.032Z,10.80
2018-11-11T17:48:39.664Z,10.80
2018-11-11T17:51:09.028Z,10.80
2018-11-11T17:53:38.370Z,10.80
2018-11-11T17:56:07.768Z,10.80
2018-11-11T17:58:37.130Z,10.70
2018-11-11T18:01:07.170Z,10.70
2018-11-11T18:03:36.592Z,10.80
2018-11-11T18:06:06.018Z,10.70
2018-11-11T18:08:35.377Z,10.70
2018-11-11T18:11:04.828Z,10.70
2018-11-11T18:13:34.183Z,10.60
2018-11-11T18:16:03.544Z,10.60
2018-11-11T18:18:32.930Z,10.60
2018-11-11T18:21:02.291Z,10.60
2018-11-11T18:23:31.667Z,10.60
2018-11-11T18:26:01.052Z,10.60
2018-11-11T18:28:30.434Z,10.60
2018-11-11T18:30:59.813Z,10.50
2018-11-11T18:33:29.131Z,10.50
2018-11-11T18:35:58.551Z,10.50
2018-11-11T18:38:27.879Z,10.50
2018-11-11T18:40:57.270Z,10.50
2018-11-11T18:43:26.620Z,10.50
2018-11-11T18:45:56.023Z,10.50
2018-11-11T18:48:25.368Z,10.50
2018-11-11T18:50:54.692Z,10.50
2018-11-11T18:53:24.069Z,10.40
2018-11-11T18:55:53.449Z,10.40
2018-11-11T18:58:23.001Z,10.40
2018-11-11T19:00:52.398Z,10.40
2018-11-11T19:03:21.796Z,10.30
2018-11-11T19:05:51.151Z,10.30
2018-11-11T19:08:20.533Z,10.30
2018-11-11T19:10:50.097Z,10.20
2018-11-11T19:13:19.300Z,10.30
2018-11-11T19:15:48.676Z,10.20
2018-11-11T19:18:18.064Z,10.20
2018-11-11T19:20:47.393Z,10.20
2018-11-11T19:23:16.738Z,10.20
2018-11-11T19:25:46.181Z,10.10
2018-11-11T19:28:15.626Z,10.20
2018-11-11T19:30:45.049Z,10.20
2018-11-11T19:33:14.425Z,10.20
2018-11-11T19:35:43.791Z,10.20
2018-11-11T19:38:13.168Z,10.20
2018-11-11T19:40:42.498Z,10.20
2018-11-11T19:43:11.891Z,10.20
2018-11-11T19:45:41.213Z,10.30
2018-11-11T19:48:10.766Z,10.30
2018-11-11T19:50:40.126Z,10.20
2018-11-11T19:53:09.523Z,10.20
2018-11-11T19:55:38.884Z,10.20
2018-11-11T19:58:08.275Z,10.20
2018-11-11T20:00:37.640Z,10.20
2018-11-11T20:03:07.261Z,10.20
2018-11-11T20:05:36.662Z,10.10
2018-11-11T20:08:06.140Z,10.10
2018-11-11T20:10:35.477Z,10.10
2018-11-11T20:13:04.918Z,10.00
2018-11-11T20:15:34.718Z,10.00
2018-11-11T20:18:04.180Z,10.00
2018-11-11T20:20:35.225Z,10.00
2018-11-11T20:23:04.735Z,10.00
2018-11-11T20:25:34.136Z,10.00
2018-11-11T20:28:03.562Z,10.00
2018-11-11T20:30:34.400Z,10.00
2018-11-11T20:33:03.764Z,10.00
2018-11-11T20:35:33.482Z,10.00
2018-11-11T20:38:03.703Z,9.90
2018-11-11T20:40:33.069Z,9.90
2018-11-11T20:43:02.646Z,9.90
2018-11-11T20:45:33.252Z,9.80
2018-11-11T20:48:02.646Z,9.80
2018-11-11T20:50:33.083Z,9.80
2018-11-11T20:53:03.784Z,9.80
2018-11-11T20:55:33.208Z,9.80
2018-11-11T20:58:03.101Z,9.70
2018-11-11T21:00:34.840Z,9.60
2018-11-11T21:03:04.207Z,9.50
2018-11-11T21:05:33.554Z,9.60
2018-11-11T21:08:02.961Z,9.60
2018-11-11T21:10:32.386Z,9.50
2018-11-11T21:13:01.763Z,9.50
2018-11-11T21:15:31.991Z,9.50
2018-11-11T21:18:01.349Z,9.50
2018-11-11T21:20:31.936Z,9.50
2018-11-11T21:23:01.284Z,9.40
2018-11-11T21:25:30.716Z,9.40
2018-11-11T21:28:00.072Z,9.40
2018-11-11T21:30:30.652Z,9.40
2018-11-11T21:32:59.974Z,9.30
2018-11-11T21:35:29.342Z,9.20
2018-11-11T21:37:58.736Z,9.30
2018-11-11T21:40:28.259Z,9.30
2018-11-11T21:42:57.840Z,9.30
2018-11-11T21:45:28.032Z,9.40
2018-11-11T21:47:57.453Z,9.60
2018-11-11T21:50:27.594Z,9.60
2018-11-11T21:53:35.368Z,9.60
2018-11-11T21:56:04.980Z,9.60
2018-11-11T21:58:34.381Z,9.60
2018-11-11T22:01:03.728Z,9.40
2018-11-11T22:03:33.099Z,9.50
2018-11-11T22:06:02.457Z,9.40
2018-11-11T22:08:31.822Z,9.40
2018-11-11T22:11:01.246Z,9.40
2018-11-11T22:13:30.568Z,9.50
2018-11-11T22:16:00.127Z,9.50
2018-11-11T22:18:29.355Z,9.50
2018-11-11T22:20:58.763Z,9.50
2018-11-11T22:23:28.139Z,9.50
2018-11-11T22:25:57.505Z,9.50
2018-11-11T22:28:26.938Z,9.50
2018-11-11T22:30:56.286Z,9.60
2018-11-11T22:33:25.676Z,9.70
2018-11-11T22:35:55.044Z,9.70
2018-11-11T22:38:24.448Z,9.80
2018-11-11T22:40:53.809Z,9.90
2018-11-11T22:43:23.198Z,9.90
2018-11-11T22:45:52.544Z,10.00
2018-11-11T22:48:21.965Z,9.90
2018-11-11T22:50:51.305Z,9.80
2018-11-11T22:53:20.701Z,9.80
2018-11-11T22:55:50.067Z,9.80
2018-11-11T22:58:19.452Z,9.70
2018-11-11T23:00:53.988Z,9.80
2018-11-11T23:03:23.468Z,10.00
2018-11-11T23:05:52.848Z,10.00
2018-11-11T23:08:22.304Z,10.00
2018-11-11T23:10:51.687Z,10.10
2018-11-11T23:13:21.053Z,10.10
2018-11-11T23:15:50.393Z,10.20
2018-11-11T23:18:19.825Z,10.20
2018-11-11T23:20:49.196Z,10.40
2018-11-11T23:23:18.622Z,10.50
2018-11-11T23:25:47.984Z,10.50
2018-11-11T23:28:17.501Z,10.60
2018-11-11T23:30:46.835Z,10.60
2018-11-11T23:33:16.252Z,10.60
2018-11-11T23:35:45.635Z,10.60
2018-11-11T23:38:15.089Z,10.50
2018-11-11T23:40:44.444Z,10.60
2018-11-11T23:43:13.844Z,10.60
2018-11-11T23:45:43.201Z,10.50
2018-11-11T23:48:12.619Z,10.30
2018-11-11T23:50:42.000Z,10.30
2018-11-11T23:53:11.405Z,10.30
2018-11-11T23:55:40.752Z,10.30
2018-11-11T23:58:10.084Z,10.20
